sensor_id;sensor_type;location;lat;lon;timestamp;temperature;humidity
9193;DHT22;4631;49.296;10.560;2023-07-31T00:02:03;16.50;99.90
9193;DHT22;4631;49.296;10.560;2023-07-31T00:04:30;16.50;99.90
9193;DHT22;4631;49.296;10.560;2023-07-31T00:06:56;16.50;99.90
9193;DHT22;4631;49.296;10.560;2023-07-31T00:09:23;16.50;99.90
9193;DHT22;4631;49.296;10.560;2023-07-31T00:11:51;16.50;99.90
9193;DHT22;4631;49.296;10.560;2023-07-31T00:14:18;16.50;99.90
9193;DHT22;4631;49.296;10.560;2023-07-31T00:16:44;16.40;99.90
9193;DHT22;4631;49.296;10.560;2023-07-31T00:19:11;16.40;99.90
9193;DHT22;4631;49.296;10.560;2023-07-31T00:21:37;16.40;99.90
9193;DHT22;4631;49.296;10.560;2023-07-31T00:24:04;16.40;99.90
9193;DHT22;4631;49.296;10.560;2023-07-31T00:26:31;16.30;99.90
9193;DHT22;4631;49.296;10.560;2023-07-31T00:28:59;16.40;99.90
9193;DHT22;4631;49.296;10.560;2023-07-31T00:31:25;16.40;99.90
9193;DHT22;4631;49.296;10.560;2023-07-31T00:33:52;16.30;99.90
9193;DHT22;4631;49.296;10.560;2023-07-31T00:36:19;16.30;99.90
9193;DHT22;4631;49.296;10.560;2023-07-31T00:38:45;16.30;99.90
9193;DHT22;4631;49.296;10.560;2023-07-31T00:41:12;16.20;99.90
9193;DHT22;4631;49.296;10.560;2023-07-31T00:43:38;16.20;99.90
9193;DHT22;4631;49.296;10.560;2023-07-31T00:46:06;16.30;99.90
9193;DHT22;4631;49.296;10.560;2023-07-31T00:48:33;16.30;99.90
9193;DHT22;4631;49.296;10.560;2023-07-31T00:51:00;16.30;99.90
9193;DHT22;4631;49.296;10.560;2023-07-31T00:53:27;16.30;99.90
9193;DHT22;4631;49.296;10.560;2023-07-31T00:55:54;16.30;99.90
9193;DHT22;4631;49.296;10.560;2023-07-31T00:58:21;16.30;99.90
9193;DHT22;4631;49.296;10.560;2023-07-31T01:00:47;16.30;99.90
9193;DHT22;4631;49.296;10.560;2023-07-31T01:03:16;16.30;99.90
9193;DHT22;4631;49.296;10.560;2023-07-31T01:05:47;16.30;99.90
9193;DHT22;4631;49.296;10.560;2023-07-31T01:08:17;16.30;99.90
9193;DHT22;4631;49.296;10.560;2023-07-31T01:10:46;16.30;99.90
9193;DHT22;4631;49.296;10.560;2023-07-31T01:13:15;16.30;99.90
9193;DHT22;4631;49.296;10.560;2023-07-31T01:15:41;16.30;99.90
9193;DHT22;4631;49.296;10.560;2023-07-31T01:18:08;16.40;99.90
9193;DHT22;4631;49.296;10.560;2023-07-31T01:20:36;16.40;99.90
9193;DHT22;4631;49.296;10.560;2023-07-31T01:23:18;16.40;99.90
9193;DHT22;4631;49.296;10.560;2023-07-31T01:25:53;16.40;99.90
9193;DHT22;4631;49.296;10.560;2023-07-31T01:28:23;16.50;99.90
9193;DHT22;4631;49.296;10.560;2023-07-31T01:30:51;16.50;99.90
9193;DHT22;4631;49.296;10.560;2023-07-31T01:33:18;16.40;99.90
9193;DHT22;4631;49.296;10.560;2023-07-31T01:35:45;16.50;99.90
9193;DHT22;4631;49.296;10.560;2023-07-31T01:38:13;16.50;99.90
9193;DHT22;4631;49.296;10.560;2023-07-31T01:40:41;16.50;99.90
9193;DHT22;4631;49.296;10.560;2023-07-31T01:43:10;16.50;99.90
9193;DHT22;4631;49.296;10.560;2023-07-31T01:45:36;16.50;99.90
9193;DHT22;4631;49.296;10.560;2023-07-31T01:48:03;16.40;99.90
9193;DHT22;4631;49.296;10.560;2023-07-31T01:50:30;16.40;99.90
9193;DHT22;4631;49.296;10.560;2023-07-31T01:52:56;16.50;99.90
9193;DHT22;4631;49.296;10.560;2023-07-31T01:55:23;16.50;99.90
9193;DHT22;4631;49.296;10.560;2023-07-31T01:57:49;16.40;99.90
9193;DHT22;4631;49.296;10.560;2023-07-31T02:00:19;16.40;99.90
9193;DHT22;4631;49.296;10.560;2023-07-31T02:02:45;16.40;99.90
9193;DHT22;4631;49.296;10.560;2023-07-31T02:05:12;16.40;99.90
9193;DHT22;4631;49.296;10.560;2023-07-31T02:07:38;16.30;99.90
9193;DHT22;4631;49.296;10.560;2023-07-31T02:10:05;16.30;99.90
9193;DHT22;4631;49.296;10.560;2023-07-31T02:12:32;16.30;99.90
9193;DHT22;4631;49.296;10.560;2023-07-31T02:14:59;16.30;99.90
9193;DHT22;4631;49.296;10.560;2023-07-31T02:17:27;16.30;99.90
9193;DHT22;4631;49.296;10.560;2023-07-31T02:19:54;16.30;99.90
9193;DHT22;4631;49.296;10.560;2023-07-31T02:22:20;16.20;99.90
9193;DHT22;4631;49.296;10.560;2023-07-31T02:24:47;16.20;99.90
9193;DHT22;4631;49.296;10.560;2023-07-31T02:27:14;16.10;99.90
9193;DHT22;4631;49.296;10.560;2023-07-31T02:29:40;16.10;99.90
9193;DHT22;4631;49.296;10.560;2023-07-31T02:32:07;16.10;99.90
9193;DHT22;4631;49.296;10.560;2023-07-31T02:34:35;16.10;99.90
9193;DHT22;4631;49.296;10.560;2023-07-31T02:37:02;16.00;99.90
9193;DHT22;4631;49.296;10.560;2023-07-31T02:39:28;16.00;99.90
9193;DHT22;4631;49.296;10.560;2023-07-31T02:41:55;16.00;99.90
9193;DHT22;4631;49.296;10.560;2023-07-31T02:44:21;16.00;99.90
9193;DHT22;4631;49.296;10.560;2023-07-31T02:46:48;15.90;99.90
9193;DHT22;4631;49.296;10.560;2023-07-31T02:49:15;15.90;99.90
9193;DHT22;4631;49.296;10.560;2023-07-31T02:51:42;15.90;99.90
9193;DHT22;4631;49.296;10.560;2023-07-31T02:54:09;15.80;99.90
9193;DHT22;4631;49.296;10.560;2023-07-31T02:56:36;15.80;99.90
9193;DHT22;4631;49.296;10.560;2023-07-31T02:59:02;15.80;99.90
9193;DHT22;4631;49.296;10.560;2023-07-31T03:01:29;15.80;99.90
9193;DHT22;4631;49.296;10.560;2023-07-31T03:03:56;15.70;99.90
9193;DHT22;4631;49.296;10.560;2023-07-31T03:06:22;15.70;99.90
9193;DHT22;4631;49.296;10.560;2023-07-31T03:08:50;15.70;99.90
9193;DHT22;4631;49.296;10.560;2023-07-31T03:11:17;15.70;99.90
9193;DHT22;4631;49.296;10.560;2023-07-31T03:13:43;15.70;99.90
9193;DHT22;4631;49.296;10.560;2023-07-31T03:16:10;15.70;99.90
9193;DHT22;4631;49.296;10.560;2023-07-31T03:18:36;15.70;99.90
9193;DHT22;4631;49.296;10.560;2023-07-31T03:21:03;15.70;99.90
9193;DHT22;4631;49.296;10.560;2023-07-31T03:23:30;15.70;99.90
9193;DHT22;4631;49.296;10.560;2023-07-31T03:25:58;15.60;99.90
9193;DHT22;4631;49.296;10.560;2023-07-31T03:28:25;15.60;99.90
9193;DHT22;4631;49.296;10.560;2023-07-31T03:30:52;15.60;99.90
9193;DHT22;4631;49.296;10.560;2023-07-31T03:33:19;15.60;99.90
9193;DHT22;4631;49.296;10.560;2023-07-31T03:35:45;15.60;99.90
9193;DHT22;4631;49.296;10.560;2023-07-31T03:38:12;15.50;99.90
9193;DHT22;4631;49.296;10.560;2023-07-31T03:40:39;15.60;99.90
9193;DHT22;4631;49.296;10.560;2023-07-31T03:43:07;15.60;99.90
9193;DHT22;4631;49.296;10.560;2023-07-31T03:45:35;15.60;99.90
9193;DHT22;4631;49.296;10.560;2023-07-31T03:48:03;15.60;99.90
9193;DHT22;4631;49.296;10.560;2023-07-31T03:50:29;15.60;99.90
9193;DHT22;4631;49.296;10.560;2023-07-31T03:52:56;15.60;99.90
9193;DHT22;4631;49.296;10.560;2023-07-31T03:55:23;15.60;99.90
9193;DHT22;4631;49.296;10.560;2023-07-31T03:57:49;15.60;99.90
9193;DHT22;4631;49.296;10.560;2023-07-31T04:00:17;15.60;99.90
9193;DHT22;4631;49.296;10.560;2023-07-31T04:02:44;15.60;99.90
9193;DHT22;4631;49.296;10.560;2023-07-31T04:05:11;15.60;99.90
9193;DHT22;4631;49.296;10.560;2023-07-31T04:07:37;15.60;99.90
9193;DHT22;4631;49.296;10.560;2023-07-31T04:10:04;15.60;99.90
9193;DHT22;4631;49.296;10.560;2023-07-31T04:12:31;15.50;99.90
9193;DHT22;4631;49.296;10.560;2023-07-31T04:14:57;15.50;99.90
9193;DHT22;4631;49.296;10.560;2023-07-31T04:17:25;15.50;99.90
9193;DHT22;4631;49.296;10.560;2023-07-31T04:19:52;15.60;99.90
9193;DHT22;4631;49.296;10.560;2023-07-31T04:22:18;15.60;99.90
9193;DHT22;4631;49.296;10.560;2023-07-31T04:24:45;15.60;99.90
9193;DHT22;4631;49.296;10.560;2023-07-31T04:27:12;15.60;99.90
9193;DHT22;4631;49.296;10.560;2023-07-31T04:29:38;15.60;99.90
9193;DHT22;4631;49.296;10.560;2023-07-31T04:32:07;15.60;99.90
9193;DHT22;4631;49.296;10.560;2023-07-31T04:34:35;15.60;99.90
9193;DHT22;4631;49.296;10.560;2023-07-31T04:37:02;15.60;99.90
9193;DHT22;4631;49.296;10.560;2023-07-31T04:39:29;15.60;99.90
9193;DHT22;4631;49.296;10.560;2023-07-31T04:41:56;15.60;99.90
9193;DHT22;4631;49.296;10.560;2023-07-31T04:44:22;15.70;99.90
9193;DHT22;4631;49.296;10.560;2023-07-31T04:46:49;15.70;99.90
9193;DHT22;4631;49.296;10.560;2023-07-31T04:49:15;15.70;99.90
9193;DHT22;4631;49.296;10.560;2023-07-31T04:51:43;15.70;99.90
9193;DHT22;4631;49.296;10.560;2023-07-31T04:56:41;15.80;99.90
9193;DHT22;4631;49.296;10.560;2023-07-31T04:59:07;15.80;99.90
9193;DHT22;4631;49.296;10.560;2023-07-31T05:01:34;15.90;99.90
9193;DHT22;4631;49.296;10.560;2023-07-31T05:04:01;15.90;99.90
9193;DHT22;4631;49.296;10.560;2023-07-31T05:06:28;16.00;99.90
9193;DHT22;4631;49.296;10.560;2023-07-31T05:08:55;16.00;99.90
9193;DHT22;4631;49.296;10.560;2023-07-31T05:11:22;16.00;99.90
9193;DHT22;4631;49.296;10.560;2023-07-31T05:13:49;16.10;99.90
9193;DHT22;4631;49.296;10.560;2023-07-31T05:16:15;16.10;99.90
9193;DHT22;4631;49.296;10.560;2023-07-31T05:18:42;16.10;99.90
9193;DHT22;4631;49.296;10.560;2023-07-31T05:21:08;16.10;99.90
9193;DHT22;4631;49.296;10.560;2023-07-31T05:23:35;16.20;99.90
9193;DHT22;4631;49.296;10.560;2023-07-31T05:26:04;16.30;99.90
9193;DHT22;4631;49.296;10.560;2023-07-31T05:28:35;16.30;99.90
9193;DHT22;4631;49.296;10.560;2023-07-31T05:31:05;16.30;99.90
9193;DHT22;4631;49.296;10.560;2023-07-31T05:33:32;16.40;99.90
9193;DHT22;4631;49.296;10.560;2023-07-31T05:35:59;16.40;99.90
9193;DHT22;4631;49.296;10.560;2023-07-31T05:38:26;16.40;99.90
9193;DHT22;4631;49.296;10.560;2023-07-31T05:40:52;16.50;99.90
9193;DHT22;4631;49.296;10.560;2023-07-31T05:43:20;16.50;99.90
9193;DHT22;4631;49.296;10.560;2023-07-31T05:45:47;16.60;99.90
9193;DHT22;4631;49.296;10.560;2023-07-31T05:48:14;16.60;99.90
9193;DHT22;4631;49.296;10.560;2023-07-31T05:50:40;16.70;99.90
9193;DHT22;4631;49.296;10.560;2023-07-31T05:53:07;16.80;99.90
9193;DHT22;4631;49.296;10.560;2023-07-31T05:55:34;16.80;99.90
9193;DHT22;4631;49.296;10.560;2023-07-31T05:58:00;16.90;99.90
9193;DHT22;4631;49.296;10.560;2023-07-31T06:00:28;16.90;99.90
9193;DHT22;4631;49.296;10.560;2023-07-31T06:02:56;17.00;99.90
9193;DHT22;4631;49.296;10.560;2023-07-31T06:05:23;16.90;99.90
9193;DHT22;4631;49.296;10.560;2023-07-31T06:07:50;17.00;99.90
9193;DHT22;4631;49.296;10.560;2023-07-31T06:10:16;17.00;99.90
9193;DHT22;4631;49.296;10.560;2023-07-31T06:12:43;17.10;99.90
9193;DHT22;4631;49.296;10.560;2023-07-31T06:15:09;17.10;99.90
9193;DHT22;4631;49.296;10.560;2023-07-31T06:17:37;17.20;99.90
9193;DHT22;4631;49.296;10.560;2023-07-31T06:20:05;17.20;99.90
9193;DHT22;4631;49.296;10.560;2023-07-31T06:22:32;17.30;99.90
9193;DHT22;4631;49.296;10.560;2023-07-31T06:24:59;17.30;99.90
9193;DHT22;4631;49.296;10.560;2023-07-31T06:27:25;17.30;99.90
9193;DHT22;4631;49.296;10.560;2023-07-31T06:29:52;17.40;99.90
9193;DHT22;4631;49.296;10.560;2023-07-31T06:32:19;17.40;99.90
9193;DHT22;4631;49.296;10.560;2023-07-31T06:34:47;17.40;99.90
9193;DHT22;4631;49.296;10.560;2023-07-31T06:37:13;17.40;99.90
9193;DHT22;4631;49.296;10.560;2023-07-31T06:39:40;17.40;99.90
9193;DHT22;4631;49.296;10.560;2023-07-31T06:42:06;17.40;99.90
9193;DHT22;4631;49.296;10.560;2023-07-31T06:44:33;17.40;99.90
9193;DHT22;4631;49.296;10.560;2023-07-31T06:47:00;17.50;99.90
9193;DHT22;4631;49.296;10.560;2023-07-31T06:49:26;17.60;99.90
9193;DHT22;4631;49.296;10.560;2023-07-31T06:51:54;17.60;99.90
9193;DHT22;4631;49.296;10.560;2023-07-31T06:54:21;17.70;99.90
9193;DHT22;4631;49.296;10.560;2023-07-31T06:56:47;17.70;99.90
9193;DHT22;4631;49.296;10.560;2023-07-31T06:59:14;17.70;99.90
9193;DHT22;4631;49.296;10.560;2023-07-31T07:01:40;17.70;99.90
9193;DHT22;4631;49.296;10.560;2023-07-31T07:04:07;17.80;99.90
9193;DHT22;4631;49.296;10.560;2023-07-31T07:06:34;17.80;99.90
9193;DHT22;4631;49.296;10.560;2023-07-31T07:09:02;17.80;99.90
9193;DHT22;4631;49.296;10.560;2023-07-31T07:11:29;17.90;99.90
9193;DHT22;4631;49.296;10.560;2023-07-31T07:13:56;17.80;99.90
9193;DHT22;4631;49.296;10.560;2023-07-31T07:16:22;17.90;99.90
9193;DHT22;4631;49.296;10.560;2023-07-31T07:18:49;17.90;99.90
9193;DHT22;4631;49.296;10.560;2023-07-31T07:21:17;17.90;99.90
9193;DHT22;4631;49.296;10.560;2023-07-31T07:23:43;18.00;99.90
9193;DHT22;4631;49.296;10.560;2023-07-31T07:26:11;18.10;99.90
9193;DHT22;4631;49.296;10.560;2023-07-31T07:28:38;18.10;99.90
9193;DHT22;4631;49.296;10.560;2023-07-31T07:31:06;18.20;99.90
9193;DHT22;4631;49.296;10.560;2023-07-31T07:33:33;18.20;99.90
9193;DHT22;4631;49.296;10.560;2023-07-31T07:36:00;18.20;99.90
9193;DHT22;4631;49.296;10.560;2023-07-31T07:38:27;18.30;99.90
9193;DHT22;4631;49.296;10.560;2023-07-31T07:40:53;18.30;99.90
9193;DHT22;4631;49.296;10.560;2023-07-31T07:43:21;18.40;99.90
9193;DHT22;4631;49.296;10.560;2023-07-31T07:45:48;18.40;99.90
9193;DHT22;4631;49.296;10.560;2023-07-31T07:48:14;18.40;99.90
9193;DHT22;4631;49.296;10.560;2023-07-31T07:50:42;18.40;99.90
9193;DHT22;4631;49.296;10.560;2023-07-31T07:53:09;18.40;99.90
9193;DHT22;4631;49.296;10.560;2023-07-31T07:55:35;18.40;99.90
9193;DHT22;4631;49.296;10.560;2023-07-31T07:58:02;18.50;99.90
9193;DHT22;4631;49.296;10.560;2023-07-31T08:00:30;18.60;99.90
9193;DHT22;4631;49.296;10.560;2023-07-31T08:02:56;18.50;99.90
9193;DHT22;4631;49.296;10.560;2023-07-31T08:05:23;18.60;99.90
9193;DHT22;4631;49.296;10.560;2023-07-31T08:07:50;18.50;99.90
9193;DHT22;4631;49.296;10.560;2023-07-31T08:10:17;18.60;99.90
9193;DHT22;4631;49.296;10.560;2023-07-31T08:12:43;18.60;99.90
9193;DHT22;4631;49.296;10.560;2023-07-31T08:15:10;18.60;99.90
9193;DHT22;4631;49.296;10.560;2023-07-31T08:17:38;18.70;99.90
9193;DHT22;4631;49.296;10.560;2023-07-31T08:20:05;18.70;99.90
9193;DHT22;4631;49.296;10.560;2023-07-31T08:22:32;18.80;99.90
9193;DHT22;4631;49.296;10.560;2023-07-31T08:24:59;18.80;99.90
9193;DHT22;4631;49.296;10.560;2023-07-31T08:27:25;18.80;99.90
9193;DHT22;4631;49.296;10.560;2023-07-31T08:29:52;18.80;99.90
9193;DHT22;4631;49.296;10.560;2023-07-31T08:32:19;18.80;99.90
9193;DHT22;4631;49.296;10.560;2023-07-31T08:34:48;18.80;99.90
9193;DHT22;4631;49.296;10.560;2023-07-31T08:37:15;18.90;99.90
9193;DHT22;4631;49.296;10.560;2023-07-31T08:39:42;18.90;99.90
9193;DHT22;4631;49.296;10.560;2023-07-31T08:42:10;18.90;99.90
9193;DHT22;4631;49.296;10.560;2023-07-31T08:45:59;19.00;99.90
9193;DHT22;4631;49.296;10.560;2023-07-31T08:47:43;19.00;99.90
9193;DHT22;4631;49.296;10.560;2023-07-31T08:50:13;19.10;99.90
9193;DHT22;4631;49.296;10.560;2023-07-31T08:52:40;19.10;99.90
9193;DHT22;4631;49.296;10.560;2023-07-31T08:55:07;19.10;99.90
9193;DHT22;4631;49.296;10.560;2023-07-31T08:57:35;19.10;99.90
9193;DHT22;4631;49.296;10.560;2023-07-31T09:00:04;19.20;99.90
9193;DHT22;4631;49.296;10.560;2023-07-31T09:02:33;19.20;99.90
9193;DHT22;4631;49.296;10.560;2023-07-31T09:05:00;19.40;99.90
9193;DHT22;4631;49.296;10.560;2023-07-31T09:07:29;19.50;99.90
9193;DHT22;4631;49.296;10.560;2023-07-31T09:09:57;19.60;99.90
9193;DHT22;4631;49.296;10.560;2023-07-31T09:12:25;19.60;99.90
9193;DHT22;4631;49.296;10.560;2023-07-31T09:14:52;19.70;99.90
9193;DHT22;4631;49.296;10.560;2023-07-31T09:17:28;19.80;99.90
9193;DHT22;4631;49.296;10.560;2023-07-31T09:19:54;19.90;99.90
9193;DHT22;4631;49.296;10.560;2023-07-31T09:22:25;19.90;99.90
9193;DHT22;4631;49.296;10.560;2023-07-31T09:24:58;20.00;99.90
9193;DHT22;4631;49.296;10.560;2023-07-31T09:27:35;20.00;99.90
9193;DHT22;4631;49.296;10.560;2023-07-31T09:30:11;20.10;99.90
9193;DHT22;4631;49.296;10.560;2023-07-31T09:32:38;20.10;99.90
9193;DHT22;4631;49.296;10.560;2023-07-31T09:35:12;20.10;99.90
9193;DHT22;4631;49.296;10.560;2023-07-31T09:37:39;20.30;99.90
9193;DHT22;4631;49.296;10.560;2023-07-31T09:40:08;20.40;99.90
9193;DHT22;4631;49.296;10.560;2023-07-31T09:42:34;20.50;99.90
9193;DHT22;4631;49.296;10.560;2023-07-31T09:45:07;20.50;99.90
9193;DHT22;4631;49.296;10.560;2023-07-31T09:47:34;20.60;99.90
9193;DHT22;4631;49.296;10.560;2023-07-31T09:50:01;20.60;99.90
9193;DHT22;4631;49.296;10.560;2023-07-31T09:52:28;20.70;99.90
9193;DHT22;4631;49.296;10.560;2023-07-31T09:54:54;20.80;99.90
9193;DHT22;4631;49.296;10.560;2023-07-31T09:57:22;20.80;99.90
9193;DHT22;4631;49.296;10.560;2023-07-31T09:59:51;20.80;99.90
9193;DHT22;4631;49.296;10.560;2023-07-31T10:02:20;20.70;99.90
9193;DHT22;4631;49.296;10.560;2023-07-31T10:04:47;20.80;99.90
9193;DHT22;4631;49.296;10.560;2023-07-31T10:07:16;20.90;99.90
9193;DHT22;4631;49.296;10.560;2023-07-31T10:09:43;21.00;99.90
9193;DHT22;4631;49.296;10.560;2023-07-31T10:12:11;21.10;99.90
9193;DHT22;4631;49.296;10.560;2023-07-31T10:14:40;21.10;99.90
9193;DHT22;4631;49.296;10.560;2023-07-31T10:17:07;21.10;99.90
9193;DHT22;4631;49.296;10.560;2023-07-31T10:19:34;21.20;99.90
9193;DHT22;4631;49.296;10.560;2023-07-31T10:22:02;21.30;99.90
9193;DHT22;4631;49.296;10.560;2023-07-31T10:24:29;21.40;99.90
9193;DHT22;4631;49.296;10.560;2023-07-31T10:26:56;21.50;99.90
9193;DHT22;4631;49.296;10.560;2023-07-31T10:29:25;21.50;99.90
9193;DHT22;4631;49.296;10.560;2023-07-31T10:31:53;21.50;99.90
9193;DHT22;4631;49.296;10.560;2023-07-31T10:34:20;21.40;99.90
9193;DHT22;4631;49.296;10.560;2023-07-31T10:36:47;21.30;99.90
9193;DHT22;4631;49.296;10.560;2023-07-31T10:39:33;21.30;99.90
9193;DHT22;4631;49.296;10.560;2023-07-31T10:41:59;21.30;99.90
9193;DHT22;4631;49.296;10.560;2023-07-31T10:44:35;21.30;99.90
9193;DHT22;4631;49.296;10.560;2023-07-31T10:47:04;21.40;99.90
9193;DHT22;4631;49.296;10.560;2023-07-31T10:49:30;21.40;99.90
9193;DHT22;4631;49.296;10.560;2023-07-31T10:51:58;21.40;99.90
9193;DHT22;4631;49.296;10.560;2023-07-31T10:54:25;21.40;99.90
9193;DHT22;4631;49.296;10.560;2023-07-31T10:56:53;21.50;99.90
9193;DHT22;4631;49.296;10.560;2023-07-31T10:59:21;21.50;99.90
9193;DHT22;4631;49.296;10.560;2023-07-31T11:01:53;21.50;99.90
9193;DHT22;4631;49.296;10.560;2023-07-31T11:04:24;21.50;99.90
9193;DHT22;4631;49.296;10.560;2023-07-31T11:06:57;21.50;99.90
9193;DHT22;4631;49.296;10.560;2023-07-31T11:09:24;21.40;99.90
9193;DHT22;4631;49.296;10.560;2023-07-31T11:11:51;21.40;99.90
9193;DHT22;4631;49.296;10.560;2023-07-31T11:14:18;21.30;99.90
9193;DHT22;4631;49.296;10.560;2023-07-31T11:16:45;21.40;99.90
9193;DHT22;4631;49.296;10.560;2023-07-31T11:19:12;21.50;99.90
9193;DHT22;4631;49.296;10.560;2023-07-31T11:21:40;21.50;99.90
9193;DHT22;4631;49.296;10.560;2023-07-31T11:24:06;21.40;99.90
9193;DHT22;4631;49.296;10.560;2023-07-31T11:26:33;21.40;99.90
9193;DHT22;4631;49.296;10.560;2023-07-31T11:29:02;21.30;99.90
9193;DHT22;4631;49.296;10.560;2023-07-31T11:31:41;21.20;99.90
9193;DHT22;4631;49.296;10.560;2023-07-31T11:34:08;21.20;99.90
9193;DHT22;4631;49.296;10.560;2023-07-31T11:36:34;21.20;99.90
9193;DHT22;4631;49.296;10.560;2023-07-31T11:39:05;21.20;99.90
9193;DHT22;4631;49.296;10.560;2023-07-31T11:41:32;21.20;99.90
9193;DHT22;4631;49.296;10.560;2023-07-31T11:43:59;21.30;99.90
9193;DHT22;4631;49.296;10.560;2023-07-31T11:46:26;21.40;99.90
9193;DHT22;4631;49.296;10.560;2023-07-31T11:48:55;21.60;99.90
9193;DHT22;4631;49.296;10.560;2023-07-31T11:51:25;21.60;99.90
9193;DHT22;4631;49.296;10.560;2023-07-31T11:53:52;21.60;99.90
9193;DHT22;4631;49.296;10.560;2023-07-31T11:56:21;21.60;99.90
9193;DHT22;4631;49.296;10.560;2023-07-31T11:58:53;21.60;99.90
9193;DHT22;4631;49.296;10.560;2023-07-31T12:01:23;21.60;99.90
9193;DHT22;4631;49.296;10.560;2023-07-31T12:03:50;21.70;99.90
9193;DHT22;4631;49.296;10.560;2023-07-31T12:06:19;21.70;99.90
9193;DHT22;4631;49.296;10.560;2023-07-31T12:08:46;21.80;99.90
9193;DHT22;4631;49.296;10.560;2023-07-31T12:11:14;22.10;99.90
9193;DHT22;4631;49.296;10.560;2023-07-31T12:13:44;22.40;99.90
9193;DHT22;4631;49.296;10.560;2023-07-31T12:16:13;22.70;99.90
9193;DHT22;4631;49.296;10.560;2023-07-31T12:18:40;23.10;99.90
9193;DHT22;4631;49.296;10.560;2023-07-31T12:21:09;23.10;99.90
9193;DHT22;4631;49.296;10.560;2023-07-31T12:23:38;23.20;99.90
9193;DHT22;4631;49.296;10.560;2023-07-31T12:26:10;22.90;99.90
9193;DHT22;4631;49.296;10.560;2023-07-31T12:28:38;22.80;99.90
9193;DHT22;4631;49.296;10.560;2023-07-31T12:31:08;22.80;99.90
9193;DHT22;4631;49.296;10.560;2023-07-31T12:33:38;22.70;99.90
9193;DHT22;4631;49.296;10.560;2023-07-31T12:36:09;22.50;99.90
9193;DHT22;4631;49.296;10.560;2023-07-31T12:38:36;22.30;99.90
9193;DHT22;4631;49.296;10.560;2023-07-31T12:41:03;22.20;99.90
9193;DHT22;4631;49.296;10.560;2023-07-31T12:43:31;22.10;99.90
9193;DHT22;4631;49.296;10.560;2023-07-31T12:45:58;22.10;99.90
9193;DHT22;4631;49.296;10.560;2023-07-31T12:48:28;22.00;99.90
9193;DHT22;4631;49.296;10.560;2023-07-31T12:50:55;22.10;99.90
9193;DHT22;4631;49.296;10.560;2023-07-31T12:53:21;22.40;99.90
9193;DHT22;4631;49.296;10.560;2023-07-31T12:55:48;22.60;99.90
9193;DHT22;4631;49.296;10.560;2023-07-31T12:58:15;22.80;99.90
9193;DHT22;4631;49.296;10.560;2023-07-31T13:00:42;23.10;99.90
9193;DHT22;4631;49.296;10.560;2023-07-31T13:03:11;23.40;99.90
9193;DHT22;4631;49.296;10.560;2023-07-31T13:05:39;23.60;99.90
9193;DHT22;4631;49.296;10.560;2023-07-31T13:08:09;23.80;99.90
9193;DHT22;4631;49.296;10.560;2023-07-31T13:10:39;23.70;99.90
9193;DHT22;4631;49.296;10.560;2023-07-31T13:13:05;23.40;99.90
9193;DHT22;4631;49.296;10.560;2023-07-31T13:15:32;23.30;99.90
9193;DHT22;4631;49.296;10.560;2023-07-31T13:17:59;23.20;99.90
9193;DHT22;4631;49.296;10.560;2023-07-31T13:20:26;23.20;99.90
9193;DHT22;4631;49.296;10.560;2023-07-31T13:22:54;23.20;99.90
9193;DHT22;4631;49.296;10.560;2023-07-31T13:25:20;23.50;99.90
9193;DHT22;4631;49.296;10.560;2023-07-31T13:27:47;23.50;99.90
9193;DHT22;4631;49.296;10.560;2023-07-31T13:30:13;23.60;99.90
9193;DHT22;4631;49.296;10.560;2023-07-31T13:32:40;23.80;99.90
9193;DHT22;4631;49.296;10.560;2023-07-31T13:35:07;24.20;99.90
9193;DHT22;4631;49.296;10.560;2023-07-31T13:37:36;24.30;99.90
9193;DHT22;4631;49.296;10.560;2023-07-31T13:40:05;24.40;99.90
9193;DHT22;4631;49.296;10.560;2023-07-31T13:42:32;24.50;99.90
9193;DHT22;4631;49.296;10.560;2023-07-31T13:44:58;24.50;99.90
9193;DHT22;4631;49.296;10.560;2023-07-31T13:47:25;24.50;99.90
9193;DHT22;4631;49.296;10.560;2023-07-31T13:49:52;24.50;99.90
9193;DHT22;4631;49.296;10.560;2023-07-31T13:52:18;24.50;99.90
9193;DHT22;4631;49.296;10.560;2023-07-31T13:54:45;24.50;99.90
9193;DHT22;4631;49.296;10.560;2023-07-31T13:57:13;24.70;99.90
9193;DHT22;4631;49.296;10.560;2023-07-31T13:59:40;24.90;99.90
9193;DHT22;4631;49.296;10.560;2023-07-31T14:02:06;25.10;99.90
9193;DHT22;4631;49.296;10.560;2023-07-31T14:04:33;25.20;99.90
9193;DHT22;4631;49.296;10.560;2023-07-31T14:06:59;25.20;99.90
9193;DHT22;4631;49.296;10.560;2023-07-31T14:09:26;25.00;99.90
9193;DHT22;4631;49.296;10.560;2023-07-31T14:11:53;24.90;99.90
9193;DHT22;4631;49.296;10.560;2023-07-31T14:14:21;24.80;99.90
9193;DHT22;4631;49.296;10.560;2023-07-31T14:16:48;24.60;99.90
9193;DHT22;4631;49.296;10.560;2023-07-31T14:19:14;24.40;99.90
9193;DHT22;4631;49.296;10.560;2023-07-31T14:21:41;24.20;99.90
9193;DHT22;4631;49.296;10.560;2023-07-31T14:24:08;23.80;99.90
9193;DHT22;4631;49.296;10.560;2023-07-31T14:26:40;23.60;99.90
9193;DHT22;4631;49.296;10.560;2023-07-31T14:29:07;23.40;99.90
9193;DHT22;4631;49.296;10.560;2023-07-31T14:31:35;23.30;99.90
9193;DHT22;4631;49.296;10.560;2023-07-31T14:34:02;23.10;99.90
9193;DHT22;4631;49.296;10.560;2023-07-31T14:36:28;23.10;99.90
9193;DHT22;4631;49.296;10.560;2023-07-31T14:38:55;23.00;99.90
9193;DHT22;4631;49.296;10.560;2023-07-31T14:41:22;22.90;99.90
9193;DHT22;4631;49.296;10.560;2023-07-31T14:43:48;22.90;99.90
9193;DHT22;4631;49.296;10.560;2023-07-31T14:46:15;22.70;99.90
9193;DHT22;4631;49.296;10.560;2023-07-31T14:48:43;22.60;99.90
9193;DHT22;4631;49.296;10.560;2023-07-31T14:51:09;22.60;99.90
9193;DHT22;4631;49.296;10.560;2023-07-31T14:53:36;22.50;99.90
9193;DHT22;4631;49.296;10.560;2023-07-31T14:56:03;22.50;99.90
9193;DHT22;4631;49.296;10.560;2023-07-31T14:58:29;22.50;99.90
9193;DHT22;4631;49.296;10.560;2023-07-31T15:00:56;22.40;99.90
9193;DHT22;4631;49.296;10.560;2023-07-31T15:03:22;22.40;99.90
9193;DHT22;4631;49.296;10.560;2023-07-31T15:05:51;22.40;99.90
9193;DHT22;4631;49.296;10.560;2023-07-31T15:08:18;22.30;99.90
9193;DHT22;4631;49.296;10.560;2023-07-31T15:10:45;22.30;99.90
9193;DHT22;4631;49.296;10.560;2023-07-31T15:13:12;22.40;99.90
9193;DHT22;4631;49.296;10.560;2023-07-31T15:15:38;22.60;99.90
9193;DHT22;4631;49.296;10.560;2023-07-31T15:18:05;22.70;99.90
9193;DHT22;4631;49.296;10.560;2023-07-31T15:20:31;22.80;99.90
9193;DHT22;4631;49.296;10.560;2023-07-31T15:23:00;22.90;99.90
9193;DHT22;4631;49.296;10.560;2023-07-31T15:25:34;22.90;99.90
9193;DHT22;4631;49.296;10.560;2023-07-31T15:28:01;23.00;99.90
9193;DHT22;4631;49.296;10.560;2023-07-31T15:30:28;23.10;99.90
9193;DHT22;4631;49.296;10.560;2023-07-31T15:32:55;23.10;99.90
9193;DHT22;4631;49.296;10.560;2023-07-31T15:35:22;23.10;99.90
9193;DHT22;4631;49.296;10.560;2023-07-31T15:37:48;23.00;99.90
9193;DHT22;4631;49.296;10.560;2023-07-31T15:40:16;22.90;99.90
9193;DHT22;4631;49.296;10.560;2023-07-31T15:42:43;22.90;99.90
9193;DHT22;4631;49.296;10.560;2023-07-31T15:45:09;22.80;99.90
9193;DHT22;4631;49.296;10.560;2023-07-31T15:47:36;22.70;99.90
9193;DHT22;4631;49.296;10.560;2023-07-31T15:50:04;22.70;99.90